Norasia Valparaiso — A8CJ9 — position and weather

sailwx.info

Track history (hours):
 
Tides and Currents Weather Stations Pressure Air Temp Water Temp Dewpoint Dewpoint Depression Visibility Wind Speed Wind Dir Waves Ship Positions

Norasia Valparaiso

Last reported at 2015-Jan-30 05:33 UTC. Time now 2015-Jan-30 06:24 UTC.
Position N 30°33' E 122°19'.

Length 286.3 m; beam 32.2 m; draft 13.2 m.

Type: Ship (hazmat cat A). MMSI: 636090659.

Date/timePositionNaut miles runAvg speedWind from/ knotsBaromVisibWave heightAir tempDewpointWater temp
2015-Jan-30 05:33N 30°33' E 122°19'8 8.2
2015-Jan-30 04:33N 30°31' E 122°28'  
2015-Jan-27 18:09N 38°51' E 118°16'711.7
2015-Jan-27 17:32N 38°54' E 118°08'10 9.9
2015-Jan-27 16:33N 38°57' E 117°56'7 6.1
2015-Jan-27 15:21N 38°59' E 117°47'0 0.0
2015-Jan-27 12:31N 38°59' E 117°47'0 0.0
2015-Jan-27 11:13N 38°59' E 117°47'0 0.0
2015-Jan-27 10:31N 38°59' E 117°47'0 0.0
2015-Jan-27 09:33N 38°59' E 117°47'0 0.0
2015-Jan-27 08:32N 38°59' E 117°47'0 0.0
2015-Jan-27 07:32N 38°59' E 117°47'0 0.0
2015-Jan-27 06:25N 38°59' E 117°47'0 0.0
2015-Jan-27 05:32N 38°59' E 117°47'0 0.0
2015-Jan-27 04:31N 38°59' E 117°47'0 0.0
2015-Jan-27 03:31N 38°59' E 117°47'0 0.0
2015-Jan-27 02:32N 38°59' E 117°47'0 0.0
2015-Jan-27 01:31N 38°59' E 117°47'0 0.0
2015-Jan-27 00:33N 38°59' E 117°47'0 0.0
2015-Jan-26 23:24N 38°59' E 117°47'0 0.0
2015-Jan-26 22:33N 38°59' E 117°47'0 0.0
2015-Jan-26 21:29N 38°59' E 117°47'0 0.0
2015-Jan-26 20:25N 38°59' E 117°47'0 0.0
2015-Jan-26 19:32N 38°59' E 117°47'0 0.0
2015-Jan-26 18:31N 38°59' E 117°47'0 0.0
2015-Jan-26 17:28N 38°59' E 117°47'0 0.0
2015-Jan-26 16:21N 38°59' E 117°47'0 0.0
2015-Jan-26 15:27N 38°59' E 117°47'1 0.8
2015-Jan-26 14:33N 38°59' E 117°48'1211.9
2015-Jan-26 13:33N 38°56' E 118°02'162 9.4
2015-Jan-25 20:20N 38°21' E 121°25'810.1
2015-Jan-25 19:33N 38°16' E 121°32'5410.0
2015-Jan-25 14:09N 37°44' E 122°28'910.8
2015-Jan-25 13:17N 37°38' E 122°37'  
2015-Jan-22 09:15N 24°26' E 119°09'1211.3
2015-Jan-22 08:09N 24°18' E 118°59'3310.7
2015-Jan-22 05:06N 23°55' E 118°33'611.1
2015-Jan-22 04:33N 23°51' E 118°29'  
Track history (hours):
 
Tides and Currents Weather Stations Pressure Air Temp Water Temp Dewpoint Dewpoint Depression Visibility Wind Speed Wind Dir Waves Ship Positions

Norasia Valparaiso

Last reported at 2015-Jan-30 05:33 UTC. Time now 2015-Jan-30 06:24 UTC.
Position N 30°33' E 122°19'.

Length 286.3 m; beam 32.2 m; draft 13.2 m.

Type: Ship (hazmat cat A). MMSI: 636090659.

Date/timePositionNaut miles runAvg speedWind from/ knotsBaromVisibWave heightAir tempDewpointWater temp
2015-Jan-30 05:33N 30°33' E 122°19'8 8.2
2015-Jan-30 04:33N 30°31' E 122°28'  
2015-Jan-27 18:09N 38°51' E 118°16'711.7
2015-Jan-27 17:32N 38°54' E 118°08'10 9.9
2015-Jan-27 16:33N 38°57' E 117°56'7 6.1
2015-Jan-27 15:21N 38°59' E 117°47'0 0.0
2015-Jan-27 12:31N 38°59' E 117°47'0 0.0
2015-Jan-27 11:13N 38°59' E 117°47'0 0.0
2015-Jan-27 10:31N 38°59' E 117°47'0 0.0
2015-Jan-27 09:33N 38°59' E 117°47'0 0.0
2015-Jan-27 08:32N 38°59' E 117°47'0 0.0
2015-Jan-27 07:32N 38°59' E 117°47'0 0.0
2015-Jan-27 06:25N 38°59' E 117°47'0 0.0
2015-Jan-27 05:32N 38°59' E 117°47'0 0.0
2015-Jan-27 04:31N 38°59' E 117°47'0 0.0
2015-Jan-27 03:31N 38°59' E 117°47'0 0.0
2015-Jan-27 02:32N 38°59' E 117°47'0 0.0
2015-Jan-27 01:31N 38°59' E 117°47'0 0.0
2015-Jan-27 00:33N 38°59' E 117°47'0 0.0
2015-Jan-26 23:24N 38°59' E 117°47'0 0.0
2015-Jan-26 22:33N 38°59' E 117°47'0 0.0
2015-Jan-26 21:29N 38°59' E 117°47'0 0.0
2015-Jan-26 20:25N 38°59' E 117°47'0 0.0
2015-Jan-26 19:32N 38°59' E 117°47'0 0.0
2015-Jan-26 18:31N 38°59' E 117°47'0 0.0
2015-Jan-26 17:28N 38°59' E 117°47'0 0.0
2015-Jan-26 16:21N 38°59' E 117°47'0 0.0
2015-Jan-26 15:27N 38°59' E 117°47'1 0.8
2015-Jan-26 14:33N 38°59' E 117°48'1211.9
2015-Jan-26 13:33N 38°56' E 118°02'162 9.4
2015-Jan-25 20:20N 38°21' E 121°25'810.1
2015-Jan-25 19:33N 38°16' E 121°32'5410.0
2015-Jan-25 14:09N 37°44' E 122°28'910.8
2015-Jan-25 13:17N 37°38' E 122°37'  
2015-Jan-22 09:15N 24°26' E 119°09'1211.3
2015-Jan-22 08:09N 24°18' E 118°59'3310.7
2015-Jan-22 05:06N 23°55' E 118°33'611.1
2015-Jan-22 04:33N 23°51' E 118°29'  

Dump ship's entire track history